< < Back
Terminal Aerodrome Forecast


Current Version              Previous Versions:   1  2  3  4  5  6  7  8  9  

Terminal Aerodrome Forecast

072
FTUS42 KGSP 221100
TAFAVL
TAF
KAVL 221129Z 2212/2312 34003KT P6SM FEW120 BKN250
     FM221500 34007KT P6SM FEW050 BKN250
     FM222200 29003KT P6SM SCT060 PROB30 2222/2304 4SM TSRA BKN040CB
     FM230400 32004KT P6SM BKN050
     FM230800 32004KT 5SM BR BKN045=

Latest METAR

590
SAUS70 KWBC 230900 RRI
MTRAVL
METAR KAVL 230854Z AUTO 19003KT 10SM CLR 19/18 A3005 RMK AO2 SLP146
T01940183 56009


USA.gov is the U.S. government's official web portal to all federal, state and local government web resources and services.